createdAt,value
2023-03-30T00:00:12.391Z,0.00
2023-03-30T00:01:12.439Z,0.00
2023-03-30T00:02:12.370Z,0.00
2023-03-30T00:03:12.474Z,0.00
2023-03-30T00:04:12.479Z,0.00
2023-03-30T00:05:12.714Z,0.00
2023-03-30T00:06:12.344Z,0.00
2023-03-30T00:08:12.302Z,0.00
2023-03-30T00:09:12.296Z,0.00
2023-03-30T00:10:12.296Z,0.00
2023-03-30T00:11:12.312Z,0.00
2023-03-30T00:12:12.264Z,0.00
2023-03-30T00:13:12.261Z,0.00
2023-03-30T00:14:12.241Z,0.00
2023-03-30T00:15:12.260Z,0.00
2023-03-30T00:16:12.255Z,0.00
2023-03-30T00:17:12.212Z,0.00
2023-03-30T00:18:12.199Z,0.00
2023-03-30T00:19:12.196Z,0.00
2023-03-30T00:20:12.303Z,0.00
2023-03-30T00:21:12.193Z,0.00
2023-03-30T00:22:12.156Z,0.00
2023-03-30T00:23:12.151Z,0.00
2023-03-30T00:24:12.138Z,0.00
2023-03-30T00:25:12.126Z,0.00
2023-03-30T00:26:12.114Z,0.00
2023-03-30T00:27:12.147Z,0.00
2023-03-30T00:28:12.094Z,0.00
2023-03-30T00:29:12.085Z,0.00
2023-03-30T00:30:12.086Z,0.00
2023-03-30T00:31:12.069Z,0.00
2023-03-30T00:32:12.352Z,0.00
2023-03-30T00:33:12.040Z,0.00
2023-03-30T00:34:12.032Z,0.00
2023-03-30T00:35:12.033Z,0.00
2023-03-30T00:36:12.093Z,0.00
2023-03-30T00:37:12.007Z,0.00
2023-03-30T00:38:11.986Z,0.00
2023-03-30T00:39:11.980Z,0.00
2023-03-30T00:40:11.965Z,0.00
2023-03-30T00:41:11.961Z,0.00
2023-03-30T00:42:11.947Z,0.00
2023-03-30T00:43:11.964Z,0.00
2023-03-30T00:44:11.924Z,0.00
2023-03-30T00:45:11.918Z,0.00
2023-03-30T00:46:11.922Z,0.00
2023-03-30T00:47:11.896Z,0.00
2023-03-30T00:48:11.965Z,0.00
2023-03-30T00:49:11.874Z,0.00
2023-03-30T00:50:11.862Z,0.00
2023-03-30T00:51:11.853Z,0.00
2023-03-30T00:52:11.844Z,0.00
2023-03-30T00:53:11.833Z,0.00
2023-03-30T00:54:11.819Z,0.00
2023-03-30T00:55:11.825Z,0.00
2023-03-30T00:56:11.800Z,0.00
2023-03-30T00:57:11.843Z,0.00
2023-03-30T00:58:11.776Z,0.00
2023-03-30T00:59:11.795Z,0.00
2023-03-30T01:00:11.758Z,0.00
2023-03-30T01:01:11.804Z,0.00
2023-03-30T01:02:11.815Z,0.00
2023-03-30T01:03:11.838Z,0.00
2023-03-30T01:04:11.720Z,0.00
2023-03-30T01:05:11.713Z,0.00
2023-03-30T01:06:11.694Z,0.00
2023-03-30T01:07:11.690Z,0.00
2023-03-30T01:08:11.675Z,0.00
2023-03-30T01:09:11.668Z,0.00
2023-03-30T01:10:11.659Z,0.00
2023-03-30T01:11:11.657Z,0.00
2023-03-30T01:12:11.633Z,0.00
2023-03-30T01:13:11.633Z,0.00
2023-03-30T01:14:11.612Z,0.00
2023-03-30T01:15:11.633Z,0.00
2023-03-30T01:16:11.637Z,0.00
2023-03-30T01:18:11.620Z,0.00
2023-03-30T01:19:11.585Z,0.00
2023-03-30T01:20:11.560Z,0.00
2023-03-30T01:21:11.540Z,0.00
2023-03-30T01:22:11.534Z,0.00
2023-03-30T01:23:11.520Z,0.00
2023-03-30T01:24:11.514Z,0.00
2023-03-30T01:25:11.500Z,0.00
2023-03-30T01:26:11.493Z,0.00
2023-03-30T01:27:11.478Z,0.00
2023-03-30T01:28:11.470Z,0.00
2023-03-30T01:29:11.458Z,0.00
2023-03-30T01:30:11.454Z,0.00
2023-03-30T01:31:11.505Z,0.00
2023-03-30T01:32:11.431Z,0.00
2023-03-30T01:33:11.420Z,0.00
2023-03-30T01:34:11.408Z,0.00
2023-03-30T01:35:11.415Z,0.00
2023-03-30T01:37:11.377Z,0.00
2023-03-30T01:38:11.563Z,0.00
2023-03-30T01:39:11.357Z,0.00
2023-03-30T01:40:11.357Z,0.00
2023-03-30T01:41:11.336Z,0.00
2023-03-30T01:42:11.322Z,0.00
2023-03-30T01:43:11.317Z,0.00
2023-03-30T01:44:11.301Z,0.00
2023-03-30T01:45:11.299Z,0.00
2023-03-30T01:46:11.316Z,0.00
2023-03-30T01:47:11.297Z,0.00
2023-03-30T01:48:11.260Z,0.00
2023-03-30T01:49:11.257Z,0.00
2023-03-30T01:50:11.238Z,0.00
2023-03-30T01:51:11.232Z,0.00
2023-03-30T01:52:11.225Z,0.00
2023-03-30T01:53:11.212Z,0.00
2023-03-30T01:54:11.201Z,0.00
2023-03-30T01:55:11.196Z,0.00
2023-03-30T01:56:11.177Z,0.00
2023-03-30T01:57:11.290Z,0.00
2023-03-30T01:58:11.154Z,0.00
2023-03-30T01:59:11.153Z,0.00
2023-03-30T02:00:11.134Z,0.00
2023-03-30T02:01:11.130Z,0.00
2023-03-30T02:02:11.154Z,0.00
2023-03-30T02:03:11.217Z,0.00
2023-03-30T02:04:11.108Z,0.00
2023-03-30T02:05:11.083Z,0.00
2023-03-30T02:06:11.070Z,0.00
2023-03-30T02:07:11.067Z,0.00
2023-03-30T02:08:11.049Z,0.00
2023-03-30T02:09:11.043Z,0.00
2023-03-30T02:10:11.023Z,0.00
2023-03-30T02:11:11.226Z,0.00
2023-03-30T02:12:11.010Z,0.00
2023-03-30T02:13:10.998Z,0.00
2023-03-30T02:15:10.983Z,0.00
2023-03-30T02:16:11.043Z,0.00
2023-03-30T02:17:10.951Z,0.00
2023-03-30T02:18:10.945Z,0.00
2023-03-30T02:19:10.950Z,0.00
2023-03-30T02:20:10.925Z,0.00
2023-03-30T02:21:10.908Z,0.00
2023-03-30T02:22:10.900Z,0.00
2023-03-30T02:23:10.888Z,0.00
2023-03-30T02:24:10.886Z,0.00
2023-03-30T02:25:10.868Z,0.00
2023-03-30T02:26:10.869Z,0.00
2023-03-30T02:27:10.844Z,0.00
2023-03-30T02:28:10.837Z,0.00
2023-03-30T02:29:10.820Z,0.00
2023-03-30T02:30:10.816Z,0.00
2023-03-30T02:31:10.835Z,0.00
2023-03-30T02:32:10.794Z,0.00
2023-03-30T02:33:10.843Z,0.00
2023-03-30T02:34:10.785Z,0.00
2023-03-30T02:35:10.778Z,0.00
2023-03-30T02:36:10.815Z,0.00
2023-03-30T02:37:10.735Z,0.00
2023-03-30T02:38:10.727Z,0.00
2023-03-30T02:39:13.208Z,0.00
2023-03-30T02:40:10.709Z,0.00
2023-03-30T02:41:10.698Z,0.00
2023-03-30T02:42:10.682Z,0.00
2023-03-30T02:43:10.672Z,0.00
2023-03-30T02:44:10.663Z,0.00
2023-03-30T02:45:10.658Z,0.00
2023-03-30T02:46:10.691Z,0.00
2023-03-30T02:47:10.626Z,0.00
2023-03-30T02:48:10.642Z,0.00
2023-03-30T02:49:10.608Z,0.00
2023-03-30T02:50:10.599Z,0.00
2023-03-30T02:51:10.608Z,0.00
2023-03-30T02:52:10.583Z,0.00
2023-03-30T02:53:10.562Z,0.00
2023-03-30T02:54:10.551Z,0.00
2023-03-30T02:56:10.526Z,0.00
2023-03-30T02:57:10.532Z,0.00
2023-03-30T02:58:10.504Z,0.00
2023-03-30T02:59:10.501Z,0.00
2023-03-30T03:00:10.485Z,0.00
2023-03-30T03:01:10.515Z,0.00
2023-03-30T03:02:10.470Z,0.00
2023-03-30T03:03:10.521Z,0.00
2023-03-30T03:04:10.438Z,0.00
2023-03-30T03:05:10.431Z,0.00
2023-03-30T03:06:10.417Z,0.00
2023-03-30T03:07:10.437Z,0.00
2023-03-30T03:08:10.394Z,0.00
2023-03-30T03:09:10.394Z,0.00
2023-03-30T03:10:10.371Z,0.00
2023-03-30T03:11:10.574Z,0.00
2023-03-30T03:12:10.352Z,0.00
2023-03-30T03:13:10.339Z,0.00
2023-03-30T03:14:10.326Z,0.00
2023-03-30T03:15:10.315Z,0.00
2023-03-30T03:16:10.319Z,0.00
2023-03-30T03:17:10.369Z,0.00
2023-03-30T03:18:10.285Z,0.00
2023-03-30T03:19:10.274Z,0.00
2023-03-30T03:20:10.268Z,0.00
2023-03-30T03:21:10.248Z,0.00
2023-03-30T03:22:10.242Z,0.00
2023-03-30T03:23:10.247Z,0.00
2023-03-30T03:24:10.218Z,0.00
2023-03-30T03:25:10.207Z,0.00
2023-03-30T03:26:10.200Z,0.00
2023-03-30T03:27:10.186Z,0.00
2023-03-30T03:28:10.177Z,0.00
2023-03-30T03:29:10.159Z,0.00
2023-03-30T03:30:10.160Z,0.00
2023-03-30T03:31:10.171Z,0.00
2023-03-30T03:32:10.126Z,0.00
2023-03-30T03:33:10.114Z,0.00
2023-03-30T03:34:10.105Z,0.00
2023-03-30T03:35:10.095Z,0.00
2023-03-30T03:36:10.148Z,0.00
2023-03-30T03:37:10.072Z,0.00
2023-03-30T03:38:10.060Z,0.00
2023-03-30T03:39:10.070Z,0.00
2023-03-30T03:40:10.042Z,0.00
2023-03-30T03:41:10.024Z,0.00
2023-03-30T03:42:10.029Z,0.00
2023-03-30T03:43:10.003Z,0.00
2023-03-30T03:44:09.994Z,0.00
2023-03-30T03:45:09.990Z,0.00
2023-03-30T03:46:09.983Z,0.00
2023-03-30T03:47:09.970Z,0.00
2023-03-30T03:48:09.992Z,0.00
2023-03-30T03:49:09.936Z,0.00
2023-03-30T03:50:09.952Z,0.00
2023-03-30T03:51:09.919Z,0.00
2023-03-30T03:52:09.911Z,0.00
2023-03-30T03:53:09.892Z,0.00
2023-03-30T03:54:09.877Z,0.00
2023-03-30T03:55:09.896Z,0.00
2023-03-30T03:56:09.862Z,0.00
2023-03-30T03:57:09.905Z,0.00
2023-03-30T03:58:09.839Z,0.00
2023-03-30T03:59:09.823Z,0.00
2023-03-30T04:00:09.821Z,0.00
2023-03-30T04:01:09.857Z,0.00
2023-03-30T04:02:09.843Z,0.00
2023-03-30T04:03:09.822Z,0.00
2023-03-30T04:04:09.782Z,0.00
2023-03-30T04:05:09.773Z,0.00
2023-03-30T04:06:09.744Z,0.00
2023-03-30T04:07:09.725Z,0.00
2023-03-30T04:08:09.725Z,0.00
2023-03-30T04:09:09.706Z,0.00
2023-03-30T04:10:09.699Z,0.00
2023-03-30T04:11:09.713Z,0.00
2023-03-30T04:12:09.873Z,0.00
2023-03-30T04:13:09.689Z,0.00
2023-03-30T04:14:09.655Z,0.00
2023-03-30T04:15:09.663Z,0.00
2023-03-30T04:16:09.699Z,0.00
2023-03-30T04:17:09.617Z,0.00
2023-03-30T04:18:09.645Z,0.00
2023-03-30T04:19:09.597Z,0.00
2023-03-30T04:20:09.591Z,0.00
2023-03-30T04:21:09.567Z,0.00
2023-03-30T04:22:09.562Z,0.00
2023-03-30T04:23:09.544Z,0.00
2023-03-30T04:24:09.549Z,0.00
2023-03-30T04:25:09.523Z,0.00
2023-03-30T04:26:09.515Z,0.00
2023-03-30T04:27:09.528Z,0.00
2023-03-30T04:28:09.498Z,0.00
2023-03-30T04:29:09.477Z,0.00
2023-03-30T04:30:09.468Z,0.00
2023-03-30T04:31:09.457Z,0.00
2023-03-30T04:32:09.485Z,0.00
2023-03-30T04:33:09.497Z,0.00
2023-03-30T04:34:09.426Z,0.00
2023-03-30T04:35:09.415Z,0.00
2023-03-30T04:36:09.427Z,0.00
2023-03-30T04:37:09.388Z,0.00
2023-03-30T04:38:09.387Z,0.00
2023-03-30T04:39:09.568Z,0.00
2023-03-30T04:40:09.367Z,0.00
2023-03-30T04:41:09.349Z,0.00
2023-03-30T04:42:09.335Z,0.00
2023-03-30T04:43:09.342Z,0.00
2023-03-30T04:44:09.320Z,0.00
2023-03-30T04:45:09.297Z,0.00
2023-03-30T04:46:09.304Z,0.00
2023-03-30T04:47:09.284Z,0.00
2023-03-30T04:48:09.305Z,0.00
2023-03-30T04:49:09.255Z,0.00
2023-03-30T04:50:09.310Z,0.00
2023-03-30T04:51:09.232Z,0.00
2023-03-30T04:52:09.232Z,0.00
2023-03-30T04:53:09.213Z,0.00
2023-03-30T04:54:09.201Z,0.00
2023-03-30T04:55:09.186Z,0.00
2023-03-30T04:56:09.178Z,4.00
2023-03-30T04:57:09.203Z,4.00
2023-03-30T04:58:09.155Z,4.00
2023-03-30T04:59:09.163Z,0.00
2023-03-30T05:00:09.133Z,0.00
2023-03-30T05:01:09.140Z,0.00
2023-03-30T05:02:09.142Z,0.00
2023-03-30T05:03:09.252Z,4.00
2023-03-30T05:04:09.085Z,4.00
2023-03-30T05:05:09.072Z,4.00
2023-03-30T05:06:09.068Z,8.00
2023-03-30T05:07:09.051Z,4.00
2023-03-30T05:08:09.042Z,4.00
2023-03-30T05:09:09.026Z,8.00
2023-03-30T05:10:09.020Z,8.00
2023-03-30T05:11:09.016Z,8.00
2023-03-30T05:12:09.000Z,8.00
2023-03-30T05:13:08.985Z,8.00
2023-03-30T05:14:08.974Z,8.00
2023-03-30T05:15:08.982Z,8.00
2023-03-30T05:16:08.951Z,8.00
2023-03-30T05:17:09.045Z,8.00
2023-03-30T05:18:08.982Z,8.00
2023-03-30T05:19:08.917Z,12.00
2023-03-30T05:20:08.920Z,8.00
2023-03-30T05:21:08.916Z,12.00
2023-03-30T05:22:08.881Z,8.00
2023-03-30T05:23:08.869Z,12.00
2023-03-30T05:24:08.865Z,12.00
2023-03-30T05:25:08.846Z,16.00
2023-03-30T05:26:09.001Z,20.00
2023-03-30T05:27:08.831Z,24.00
2023-03-30T05:28:08.817Z,24.00
2023-03-30T05:29:08.813Z,32.00
2023-03-30T05:30:08.810Z,36.00
2023-03-30T05:31:08.814Z,44.00
2023-03-30T05:32:08.769Z,44.00
2023-03-30T05:33:08.809Z,48.00
2023-03-30T05:34:08.757Z,44.00
2023-03-30T05:35:08.737Z,48.00
2023-03-30T05:36:08.760Z,48.00
2023-03-30T05:37:08.712Z,48.00
2023-03-30T05:38:08.710Z,52.00
2023-03-30T05:39:08.684Z,56.00
2023-03-30T05:40:08.677Z,64.00
2023-03-30T05:41:08.667Z,72.00
2023-03-30T05:42:08.654Z,88.00
2023-03-30T05:43:09.380Z,100.00
2023-03-30T05:44:08.633Z,120.00
2023-03-30T05:45:08.617Z,136.00
2023-03-30T05:46:08.650Z,156.00
2023-03-30T05:47:08.635Z,176.00
2023-03-30T05:48:08.590Z,192.00
2023-03-30T05:49:08.573Z,204.00
2023-03-30T05:50:08.564Z,212.00
2023-03-30T05:51:08.888Z,216.00
2023-03-30T05:52:08.543Z,208.00
2023-03-30T05:53:08.525Z,208.00
2023-03-30T05:54:08.518Z,200.00
2023-03-30T05:55:08.541Z,200.00
2023-03-30T05:56:08.499Z,196.00
2023-03-30T05:57:08.538Z,188.00
2023-03-30T05:58:08.474Z,184.00
2023-03-30T05:59:08.458Z,184.00
2023-03-30T06:00:08.453Z,184.00
2023-03-30T06:01:08.436Z,176.00
2023-03-30T06:03:08.594Z,180.00
2023-03-30T06:04:08.625Z,184.00
2023-03-30T06:05:08.402Z,188.00
2023-03-30T06:06:08.380Z,188.00
2023-03-30T06:07:08.376Z,180.00
2023-03-30T06:08:08.365Z,168.00
2023-03-30T06:09:08.350Z,164.00
2023-03-30T06:10:08.336Z,156.00
2023-03-30T06:11:08.328Z,140.00
2023-03-30T06:12:08.321Z,136.00
2023-03-30T06:13:08.305Z,132.00
2023-03-30T06:14:08.293Z,132.00
2023-03-30T06:15:08.285Z,140.00
2023-03-30T06:16:08.318Z,160.00
2023-03-30T06:17:08.262Z,188.00
2023-03-30T06:18:08.865Z,208.00
2023-03-30T06:19:08.267Z,228.00
2023-03-30T06:20:08.226Z,232.00
2023-03-30T06:21:08.226Z,228.00
2023-03-30T06:22:08.203Z,212.00
2023-03-30T06:23:08.213Z,196.00
2023-03-30T06:24:08.181Z,188.00
2023-03-30T06:25:08.174Z,180.00
2023-03-30T06:26:08.159Z,176.00
2023-03-30T06:27:08.153Z,176.00
2023-03-30T06:28:08.149Z,180.00
2023-03-30T06:29:08.128Z,180.00
2023-03-30T06:30:08.114Z,180.00
2023-03-30T06:31:08.107Z,180.00
2023-03-30T06:32:08.188Z,180.00
2023-03-30T06:33:08.155Z,188.00
2023-03-30T06:34:08.076Z,204.00
2023-03-30T06:35:08.094Z,216.00
2023-03-30T06:36:08.107Z,224.00
2023-03-30T06:37:08.278Z,228.00
2023-03-30T06:38:08.027Z,240.00
2023-03-30T06:39:08.021Z,276.00
2023-03-30T06:40:08.007Z,288.00
2023-03-30T06:41:07.996Z,300.00
2023-03-30T06:42:07.982Z,292.00
2023-03-30T06:43:07.984Z,268.00
2023-03-30T06:44:07.963Z,256.00
2023-03-30T06:45:07.953Z,240.00
2023-03-30T06:46:08.036Z,228.00
2023-03-30T06:47:07.932Z,220.00
2023-03-30T06:48:08.002Z,212.00
2023-03-30T06:49:07.909Z,216.00
2023-03-30T06:50:07.902Z,224.00
2023-03-30T06:51:07.992Z,240.00
2023-03-30T06:52:08.802Z,276.00
2023-03-30T06:53:07.866Z,308.00
2023-03-30T06:54:07.852Z,348.00
2023-03-30T06:55:07.848Z,388.00
2023-03-30T06:56:07.834Z,412.00
2023-03-30T06:57:07.882Z,432.00
2023-03-30T06:58:07.812Z,436.00
2023-03-30T06:59:07.825Z,424.00
2023-03-30T07:00:07.791Z,400.00
2023-03-30T07:01:07.843Z,388.00
2023-03-30T07:02:07.766Z,388.00
2023-03-30T07:03:07.777Z,440.00
2023-03-30T07:04:07.953Z,516.00
2023-03-30T07:05:07.748Z,596.00
2023-03-30T07:06:07.730Z,628.00
2023-03-30T07:07:07.771Z,680.00
2023-03-30T07:08:07.708Z,784.00
2023-03-30T07:09:07.694Z,828.00
2023-03-30T07:10:07.693Z,792.00
2023-03-30T07:11:07.716Z,760.00
2023-03-30T07:12:07.659Z,744.00
2023-03-30T07:13:07.661Z,760.00
2023-03-30T07:14:07.640Z,812.00
2023-03-30T07:15:07.629Z,924.00
2023-03-30T07:16:07.617Z,1056.00
2023-03-30T07:17:07.939Z,1200.00
2023-03-30T07:18:07.727Z,1332.00
2023-03-30T07:19:07.627Z,1412.00
2023-03-30T07:20:07.606Z,1428.00
2023-03-30T07:21:07.563Z,1408.00
2023-03-30T07:22:07.556Z,1348.00
2023-03-30T07:23:07.575Z,1284.00
2023-03-30T07:24:07.533Z,1304.00
2023-03-30T07:25:07.524Z,1128.00
2023-03-30T07:26:07.521Z,1068.00
2023-03-30T07:27:07.522Z,1092.00
2023-03-30T07:28:07.493Z,1120.00
2023-03-30T07:29:07.498Z,1156.00
2023-03-30T07:30:17.732Z,1188.00
2023-03-30T07:31:07.923Z,1228.00
2023-03-30T07:32:07.474Z,1280.00
2023-03-30T07:33:07.561Z,1328.00
2023-03-30T07:34:07.433Z,1388.00
2023-03-30T07:35:07.420Z,1412.00
2023-03-30T07:36:07.434Z,1384.00
2023-03-30T07:37:07.661Z,1336.00
2023-03-30T07:38:07.393Z,1304.00
2023-03-30T07:39:07.406Z,1284.00
2023-03-30T07:40:07.429Z,1236.00
2023-03-30T07:41:07.360Z,1188.00
2023-03-30T07:42:07.349Z,1132.00
2023-03-30T07:43:07.355Z,1108.00
2023-03-30T07:44:07.332Z,1084.00
2023-03-30T07:45:07.314Z,1020.00
2023-03-30T07:46:07.360Z,964.00
2023-03-30T07:47:07.313Z,908.00
2023-03-30T07:48:07.344Z,900.00
2023-03-30T07:49:07.273Z,928.00
2023-03-30T07:50:07.266Z,988.00
2023-03-30T07:51:07.255Z,1040.00
2023-03-30T07:52:07.254Z,1100.00
2023-03-30T07:53:07.235Z,1184.00
2023-03-30T07:54:07.229Z,1232.00
2023-03-30T07:55:07.238Z,1272.00
2023-03-30T07:56:07.210Z,1348.00
2023-03-30T07:57:07.269Z,1428.00
2023-03-30T07:58:07.188Z,1484.00
2023-03-30T07:59:07.176Z,1544.00
2023-03-30T08:00:07.169Z,1608.00
2023-03-30T08:01:07.267Z,1684.00
2023-03-30T08:02:07.155Z,1748.00
2023-03-30T08:03:07.201Z,1792.00
2023-03-30T08:04:07.165Z,1824.00
2023-03-30T08:05:07.237Z,1848.00
2023-03-30T08:06:07.110Z,1848.00
2023-03-30T08:07:07.101Z,1836.00
2023-03-30T08:08:07.092Z,1844.00
2023-03-30T08:09:07.089Z,1856.00
2023-03-30T08:10:07.077Z,1868.00
2023-03-30T08:11:07.079Z,1900.00
2023-03-30T08:12:07.054Z,1956.00
2023-03-30T08:13:07.044Z,1980.00
2023-03-30T08:14:07.039Z,1976.00
2023-03-30T08:15:07.026Z,2016.00
2023-03-30T08:16:07.048Z,2084.00
2023-03-30T08:17:07.001Z,2020.00
2023-03-30T08:18:07.023Z,1880.00
2023-03-30T08:19:06.983Z,1676.00
2023-03-30T08:20:06.982Z,1468.00
2023-03-30T08:21:07.266Z,1260.00
2023-03-30T08:22:06.960Z,1076.00
2023-03-30T08:23:06.962Z,944.00
2023-03-30T08:24:06.947Z,844.00
2023-03-30T08:25:06.928Z,796.00
2023-03-30T08:26:06.933Z,776.00
2023-03-30T08:27:07.036Z,752.00
2023-03-30T08:28:06.921Z,760.00
2023-03-30T08:29:06.892Z,800.00
2023-03-30T08:30:06.906Z,824.00
2023-03-30T08:31:07.097Z,836.00
2023-03-30T08:32:06.980Z,840.00
2023-03-30T08:33:06.882Z,840.00
2023-03-30T08:34:06.848Z,856.00
2023-03-30T08:35:06.841Z,884.00
2023-03-30T08:36:06.919Z,900.00
2023-03-30T08:37:06.814Z,944.00
2023-03-30T08:38:06.822Z,956.00
2023-03-30T08:39:06.799Z,976.00
2023-03-30T08:40:06.794Z,1004.00
2023-03-30T08:41:07.060Z,1000.00
2023-03-30T08:42:06.775Z,1004.00
2023-03-30T08:43:06.795Z,1056.00
2023-03-30T08:44:06.755Z,1068.00
2023-03-30T08:45:06.741Z,1084.00
2023-03-30T08:46:06.749Z,1108.00
2023-03-30T08:47:06.741Z,1124.00
2023-03-30T08:48:06.777Z,1164.00
2023-03-30T08:49:06.707Z,1180.00
2023-03-30T08:50:06.714Z,1176.00
2023-03-30T08:51:06.892Z,1152.00
2023-03-30T08:52:06.679Z,1280.00
2023-03-30T08:53:06.667Z,1392.00
2023-03-30T08:54:06.661Z,1396.00
2023-03-30T08:55:06.651Z,1380.00
2023-03-30T08:56:06.641Z,1328.00
2023-03-30T08:57:06.655Z,1320.00
2023-03-30T08:58:06.622Z,1280.00
2023-03-30T08:59:06.653Z,1220.00
2023-03-30T09:00:06.610Z,1096.00
2023-03-30T09:01:06.830Z,920.00
2023-03-30T09:02:06.586Z,780.00
2023-03-30T09:03:06.602Z,676.00
2023-03-30T09:04:06.570Z,620.00
2023-03-30T09:05:06.602Z,580.00
2023-03-30T09:06:06.551Z,552.00
2023-03-30T09:07:06.537Z,524.00
2023-03-30T09:08:06.531Z,508.00
2023-03-30T09:09:06.517Z,496.00
2023-03-30T09:10:06.510Z,480.00
2023-03-30T09:11:06.716Z,464.00
2023-03-30T09:12:06.501Z,456.00
2023-03-30T09:13:06.479Z,452.00
2023-03-30T09:14:06.481Z,472.00
2023-03-30T09:15:06.484Z,520.00
2023-03-30T09:16:06.471Z,552.00
2023-03-30T09:17:06.444Z,516.00
2023-03-30T09:18:06.497Z,456.00
2023-03-30T09:19:06.424Z,416.00
2023-03-30T09:20:06.422Z,400.00
2023-03-30T09:21:06.950Z,404.00
2023-03-30T09:22:06.400Z,400.00
2023-03-30T09:23:06.385Z,412.00
2023-03-30T09:24:06.393Z,436.00
2023-03-30T09:25:06.370Z,452.00
2023-03-30T09:26:06.359Z,452.00
2023-03-30T09:27:06.348Z,432.00
2023-03-30T09:28:06.338Z,388.00
2023-03-30T09:29:06.335Z,352.00
2023-03-30T09:30:06.325Z,316.00
2023-03-30T09:31:06.654Z,288.00
2023-03-30T09:32:06.326Z,264.00
2023-03-30T09:33:06.327Z,256.00
2023-03-30T09:34:08.095Z,252.00
2023-03-30T09:35:06.265Z,268.00
2023-03-30T09:36:06.528Z,288.00
2023-03-30T09:37:06.247Z,308.00
2023-03-30T09:38:06.240Z,328.00
2023-03-30T09:39:06.228Z,328.00
2023-03-30T09:40:06.227Z,328.00
2023-03-30T09:41:06.284Z,324.00
2023-03-30T09:42:06.197Z,308.00
2023-03-30T09:43:06.184Z,300.00
2023-03-30T09:44:06.176Z,284.00
2023-03-30T09:45:06.161Z,272.00
2023-03-30T09:46:06.680Z,268.00
2023-03-30T09:47:06.189Z,272.00
2023-03-30T09:48:06.193Z,276.00
2023-03-30T09:49:06.130Z,284.00
2023-03-30T09:50:06.113Z,308.00
2023-03-30T09:51:06.098Z,352.00
2023-03-30T09:52:06.092Z,412.00
2023-03-30T09:53:06.087Z,516.00
2023-03-30T09:54:06.078Z,656.00
2023-03-30T09:55:06.059Z,800.00
2023-03-30T09:56:06.339Z,932.00
2023-03-30T09:57:06.077Z,1068.00
2023-03-30T09:58:06.027Z,1196.00
2023-03-30T09:59:06.014Z,1360.00
2023-03-30T10:00:06.006Z,1560.00
2023-03-30T10:01:06.033Z,1688.00
2023-03-30T10:02:06.886Z,1692.00
2023-03-30T10:03:06.096Z,1636.00
2023-03-30T10:04:06.238Z,1604.00
2023-03-30T10:05:05.992Z,1596.00
2023-03-30T10:06:06.220Z,1696.00
2023-03-30T10:07:18.088Z,1796.00
2023-03-30T10:08:05.922Z,1744.00
2023-03-30T10:09:05.913Z,1660.00
2023-03-30T10:10:05.901Z,1520.00
2023-03-30T10:11:05.899Z,1340.00
2023-03-30T10:12:05.901Z,1236.00
2023-03-30T10:13:05.867Z,1184.00
2023-03-30T10:14:05.861Z,1232.00
2023-03-30T10:15:05.848Z,1420.00
2023-03-30T10:16:06.054Z,1588.00
2023-03-30T10:17:05.827Z,1612.00
2023-03-30T10:18:05.848Z,1568.00
2023-03-30T10:19:05.843Z,1440.00
2023-03-30T10:20:13.561Z,1364.00
2023-03-30T10:21:05.795Z,1288.00
2023-03-30T10:22:05.779Z,1176.00
2023-03-30T10:23:05.771Z,1064.00
2023-03-30T10:24:05.761Z,956.00
2023-03-30T10:25:08.029Z,1040.00
2023-03-30T10:26:05.831Z,1064.00
2023-03-30T10:27:05.732Z,1064.00
2023-03-30T10:28:05.720Z,1016.00
2023-03-30T10:29:05.710Z,912.00
2023-03-30T10:30:05.698Z,800.00
2023-03-30T10:31:05.714Z,752.00
2023-03-30T10:32:05.682Z,780.00
2023-03-30T10:33:05.697Z,828.00
2023-03-30T10:34:05.661Z,848.00
2023-03-30T10:35:05.666Z,880.00
2023-03-30T10:36:05.959Z,960.00
2023-03-30T10:37:05.625Z,1108.00
2023-03-30T10:38:05.617Z,1164.00
2023-03-30T10:39:05.625Z,1240.00
2023-03-30T10:40:05.601Z,1236.00
2023-03-30T10:41:05.584Z,1180.00
2023-03-30T10:42:05.579Z,1084.00
2023-03-30T10:43:05.567Z,980.00
2023-03-30T10:44:05.561Z,888.00
2023-03-30T10:45:05.545Z,812.00
2023-03-30T10:46:18.190Z,712.00
2023-03-30T10:47:05.567Z,620.00
2023-03-30T10:48:05.588Z,572.00
2023-03-30T10:49:05.503Z,580.00
2023-03-30T10:50:05.500Z,588.00
2023-03-30T10:51:05.510Z,648.00
2023-03-30T10:52:05.480Z,664.00
2023-03-30T10:53:05.468Z,648.00
2023-03-30T10:54:05.458Z,680.00
2023-03-30T10:55:05.449Z,752.00
2023-03-30T10:56:05.639Z,852.00
2023-03-30T10:57:05.461Z,920.00
2023-03-30T10:58:05.418Z,928.00
2023-03-30T10:59:05.402Z,932.00
2023-03-30T11:00:05.408Z,916.00
2023-03-30T11:01:05.424Z,856.00
2023-03-30T11:02:05.380Z,808.00
2023-03-30T11:03:05.392Z,772.00
2023-03-30T11:04:20.406Z,756.00
2023-03-30T11:05:05.347Z,772.00
2023-03-30T11:06:05.639Z,764.00
2023-03-30T11:07:05.346Z,796.00
2023-03-30T11:08:05.315Z,824.00
2023-03-30T11:09:05.318Z,848.00
2023-03-30T11:10:05.312Z,896.00
2023-03-30T11:11:05.282Z,872.00
2023-03-30T11:12:05.273Z,840.00
2023-03-30T11:13:05.260Z,832.00
2023-03-30T11:14:05.254Z,824.00
2023-03-30T11:15:05.238Z,856.00
2023-03-30T11:16:05.504Z,948.00
2023-03-30T11:17:05.273Z,1016.00
2023-03-30T11:18:05.286Z,1068.00
2023-03-30T11:19:05.294Z,1024.00
2023-03-30T11:20:05.190Z,940.00
2023-03-30T11:21:05.175Z,920.00
2023-03-30T11:22:05.198Z,844.00
2023-03-30T11:23:05.186Z,784.00
2023-03-30T11:24:05.151Z,744.00
2023-03-30T11:25:05.142Z,736.00
2023-03-30T11:26:05.254Z,776.00
2023-03-30T11:27:05.131Z,756.00
2023-03-30T11:28:05.107Z,720.00
2023-03-30T11:29:05.110Z,708.00
2023-03-30T11:30:05.086Z,664.00
2023-03-30T11:31:05.075Z,628.00
2023-03-30T11:32:05.083Z,624.00
2023-03-30T11:33:05.111Z,580.00
2023-03-30T11:34:05.045Z,520.00
2023-03-30T11:35:05.033Z,440.00
2023-03-30T11:36:05.182Z,376.00
2023-03-30T11:37:05.009Z,320.00
2023-03-30T11:38:05.008Z,268.00
2023-03-30T11:39:05.023Z,232.00
2023-03-30T11:40:04.982Z,220.00
2023-03-30T11:41:04.971Z,212.00
2023-03-30T11:42:04.961Z,196.00
2023-03-30T11:43:04.948Z,196.00
2023-03-30T11:44:04.940Z,204.00
2023-03-30T11:45:04.966Z,228.00
2023-03-30T11:46:04.979Z,236.00
2023-03-30T11:47:04.906Z,224.00
2023-03-30T11:48:04.939Z,212.00
2023-03-30T11:49:04.888Z,212.00
2023-03-30T11:50:04.888Z,204.00
2023-03-30T11:51:05.027Z,204.00
2023-03-30T11:52:04.911Z,252.00
2023-03-30T11:53:04.857Z,296.00
2023-03-30T11:54:04.846Z,316.00
2023-03-30T11:55:04.875Z,332.00
2023-03-30T11:56:05.020Z,340.00
2023-03-30T11:57:04.843Z,328.00
2023-03-30T11:58:06.311Z,340.00
2023-03-30T11:59:04.790Z,328.00
2023-03-30T12:00:04.779Z,316.00
2023-03-30T12:01:04.948Z,348.00
2023-03-30T12:02:04.895Z,436.00
2023-03-30T12:03:04.865Z,560.00
2023-03-30T12:04:04.817Z,684.00
2023-03-30T12:05:04.780Z,752.00
2023-03-30T12:06:04.876Z,832.00
2023-03-30T12:07:04.700Z,988.00
2023-03-30T12:08:04.692Z,1064.00
2023-03-30T12:09:04.680Z,1180.00
2023-03-30T12:10:06.740Z,1204.00
2023-03-30T12:11:04.813Z,1136.00
2023-03-30T12:12:04.661Z,1112.00
2023-03-30T12:13:04.636Z,1020.00
2023-03-30T12:14:04.622Z,888.00
2023-03-30T12:15:04.617Z,804.00
2023-03-30T12:16:04.774Z,776.00
2023-03-30T12:17:04.597Z,760.00
2023-03-30T12:18:04.634Z,800.00
2023-03-30T12:19:04.573Z,884.00
2023-03-30T12:20:04.559Z,912.00
2023-03-30T12:21:04.551Z,908.00
2023-03-30T12:22:04.540Z,832.00
2023-03-30T12:23:04.532Z,788.00
2023-03-30T12:24:04.523Z,792.00
2023-03-30T12:25:04.506Z,804.00
2023-03-30T12:26:04.699Z,824.00
2023-03-30T12:27:06.781Z,860.00
2023-03-30T12:28:04.472Z,892.00
2023-03-30T12:29:32.617Z,928.00
2023-03-30T12:30:04.457Z,948.00
2023-03-30T12:31:04.455Z,960.00
2023-03-30T12:32:04.628Z,956.00
2023-03-30T12:33:04.467Z,940.00
2023-03-30T12:34:04.420Z,920.00
2023-03-30T12:35:04.412Z,908.00
2023-03-30T12:36:04.751Z,900.00
2023-03-30T12:37:04.382Z,892.00
2023-03-30T12:38:04.385Z,892.00
2023-03-30T12:39:04.360Z,920.00
2023-03-30T12:40:04.360Z,948.00
2023-03-30T12:41:04.360Z,960.00
2023-03-30T12:42:04.329Z,948.00
2023-03-30T12:43:04.350Z,920.00
2023-03-30T12:44:04.325Z,904.00
2023-03-30T12:45:04.337Z,924.00
2023-03-30T12:46:04.542Z,988.00
2023-03-30T12:47:06.285Z,1080.00
2023-03-30T12:48:04.322Z,1188.00
2023-03-30T12:49:05.634Z,1260.00
2023-03-30T12:50:04.263Z,1300.00